sensor_id;sensor_type;location;lat;lon;timestamp;P1;durP1;ratioP1;P2;durP2;ratioP2
55150;SDS011;41041;43.162;20.538;2023-11-19T00:03:33;2.45;;;1.40;;
55150;SDS011;41041;43.162;20.538;2023-11-19T00:06:00;2.35;;;1.27;;
55150;SDS011;41041;43.162;20.538;2023-11-19T00:08:26;4.53;;;1.77;;
55150;SDS011;41041;43.162;20.538;2023-11-19T00:13:49;3.05;;;1.95;;
55150;SDS011;41041;43.162;20.538;2023-11-19T00:16:16;2.83;;;1.60;;
55150;SDS011;41041;43.162;20.538;2023-11-19T00:18:42;3.92;;;1.83;;
55150;SDS011;41041;43.162;20.538;2023-11-19T00:21:08;3.25;;;1.33;;
55150;SDS011;41041;43.162;20.538;2023-11-19T00:23:35;1.92;;;1.30;;
55150;SDS011;41041;43.162;20.538;2023-11-19T00:26:01;3.55;;;1.50;;
55150;SDS011;41041;43.162;20.538;2023-11-19T00:28:27;1.90;;;1.13;;
55150;SDS011;41041;43.162;20.538;2023-11-19T00:30:53;2.42;;;1.52;;
55150;SDS011;41041;43.162;20.538;2023-11-19T00:33:20;2.22;;;1.30;;
55150;SDS011;41041;43.162;20.538;2023-11-19T00:35:46;2.90;;;1.70;;
55150;SDS011;41041;43.162;20.538;2023-11-19T00:38:13;11.13;;;5.30;;
55150;SDS011;41041;43.162;20.538;2023-11-19T00:40:39;3.70;;;2.13;;
55150;SDS011;41041;43.162;20.538;2023-11-19T00:43:06;2.65;;;1.60;;
55150;SDS011;41041;43.162;20.538;2023-11-19T00:45:32;4.97;;;2.83;;
55150;SDS011;41041;43.162;20.538;2023-11-19T00:47:58;2.75;;;1.70;;
55150;SDS011;41041;43.162;20.538;2023-11-19T00:50:25;3.08;;;1.80;;
55150;SDS011;41041;43.162;20.538;2023-11-19T00:52:51;2.70;;;1.60;;
55150;SDS011;41041;43.162;20.538;2023-11-19T00:55:17;2.97;;;1.60;;
55150;SDS011;41041;43.162;20.538;2023-11-19T00:57:43;1.90;;;1.23;;
55150;SDS011;41041;43.162;20.538;2023-11-19T01:00:09;2.78;;;1.85;;
55150;SDS011;41041;43.162;20.538;2023-11-19T01:02:43;3.88;;;1.40;;
55150;SDS011;41041;43.162;20.538;2023-11-19T01:05:09;3.03;;;1.52;;
55150;SDS011;41041;43.162;20.538;2023-11-19T01:07:39;2.00;;;1.30;;
55150;SDS011;41041;43.162;20.538;2023-11-19T01:10:05;1.90;;;1.30;;
55150;SDS011;41041;43.162;20.538;2023-11-19T01:12:33;2.50;;;1.50;;
55150;SDS011;41041;43.162;20.538;2023-11-19T01:17:28;2.38;;;1.48;;
55150;SDS011;41041;43.162;20.538;2023-11-19T01:19:56;2.35;;;1.30;;
55150;SDS011;41041;43.162;20.538;2023-11-19T01:22:26;2.65;;;1.70;;
55150;SDS011;41041;43.162;20.538;2023-11-19T01:24:52;3.03;;;1.60;;
55150;SDS011;41041;43.162;20.538;2023-11-19T01:27:19;3.60;;;1.80;;
55150;SDS011;41041;43.162;20.538;2023-11-19T01:29:45;2.17;;;1.40;;
55150;SDS011;41041;43.162;20.538;2023-11-19T01:32:14;3.60;;;1.42;;
55150;SDS011;41041;43.162;20.538;2023-11-19T01:34:40;2.88;;;1.70;;
55150;SDS011;41041;43.162;20.538;2023-11-19T01:37:06;2.80;;;1.55;;
55150;SDS011;41041;43.162;20.538;2023-11-19T01:39:34;2.28;;;1.42;;
55150;SDS011;41041;43.162;20.538;2023-11-19T01:42:10;2.63;;;1.40;;
55150;SDS011;41041;43.162;20.538;2023-11-19T01:44:37;3.53;;;1.90;;
55150;SDS011;41041;43.162;20.538;2023-11-19T01:47:03;3.05;;;1.90;;
55150;SDS011;41041;43.162;20.538;2023-11-19T01:49:30;3.92;;;2.30;;
55150;SDS011;41041;43.162;20.538;2023-11-19T01:51:57;3.53;;;2.03;;
55150;SDS011;41041;43.162;20.538;2023-11-19T01:54:24;3.90;;;2.40;;
55150;SDS011;41041;43.162;20.538;2023-11-19T01:56:50;5.57;;;2.35;;
55150;SDS011;41041;43.162;20.538;2023-11-19T01:59:18;6.55;;;2.80;;
55150;SDS011;41041;43.162;20.538;2023-11-19T02:01:51;8.38;;;4.00;;
55150;SDS011;41041;43.162;20.538;2023-11-19T02:04:17;8.80;;;3.17;;
55150;SDS011;41041;43.162;20.538;2023-11-19T02:06:43;7.15;;;3.50;;
55150;SDS011;41041;43.162;20.538;2023-11-19T02:09:09;8.18;;;3.35;;
55150;SDS011;41041;43.162;20.538;2023-11-19T02:11:35;9.75;;;4.22;;
55150;SDS011;41041;43.162;20.538;2023-11-19T02:14:01;10.32;;;6.70;;
55150;SDS011;41041;43.162;20.538;2023-11-19T02:16:31;10.02;;;5.97;;
55150;SDS011;41041;43.162;20.538;2023-11-19T02:18:57;8.27;;;4.72;;
55150;SDS011;41041;43.162;20.538;2023-11-19T02:21:23;7.65;;;3.55;;
55150;SDS011;41041;43.162;20.538;2023-11-19T02:23:49;8.02;;;3.65;;
55150;SDS011;41041;43.162;20.538;2023-11-19T02:26:51;6.35;;;3.97;;
55150;SDS011;41041;43.162;20.538;2023-11-19T02:29:07;7.57;;;4.38;;
55150;SDS011;41041;43.162;20.538;2023-11-19T02:31:33;5.63;;;3.30;;
55150;SDS011;41041;43.162;20.538;2023-11-19T02:34:00;6.65;;;3.75;;
55150;SDS011;41041;43.162;20.538;2023-11-19T02:36:27;6.53;;;3.45;;
55150;SDS011;41041;43.162;20.538;2023-11-19T02:38:53;7.07;;;3.55;;
55150;SDS011;41041;43.162;20.538;2023-11-19T02:41:19;6.40;;;3.95;;
55150;SDS011;41041;43.162;20.538;2023-11-19T02:43:45;5.55;;;3.58;;
55150;SDS011;41041;43.162;20.538;2023-11-19T02:46:11;8.45;;;3.92;;
55150;SDS011;41041;43.162;20.538;2023-11-19T02:48:37;8.70;;;4.90;;
55150;SDS011;41041;43.162;20.538;2023-11-19T02:51:04;12.35;;;7.03;;
55150;SDS011;41041;43.162;20.538;2023-11-19T02:53:34;13.90;;;8.10;;
55150;SDS011;41041;43.162;20.538;2023-11-19T02:56:00;16.75;;;7.43;;
55150;SDS011;41041;43.162;20.538;2023-11-19T02:58:31;10.38;;;6.40;;
55150;SDS011;41041;43.162;20.538;2023-11-19T03:00:57;10.50;;;5.25;;
55150;SDS011;41041;43.162;20.538;2023-11-19T03:03:24;9.93;;;4.28;;
55150;SDS011;41041;43.162;20.538;2023-11-19T03:06:03;11.02;;;5.20;;
55150;SDS011;41041;43.162;20.538;2023-11-19T03:08:34;11.50;;;6.95;;
55150;SDS011;41041;43.162;20.538;2023-11-19T03:11:01;10.85;;;5.78;;
55150;SDS011;41041;43.162;20.538;2023-11-19T03:13:27;6.78;;;4.57;;
55150;SDS011;41041;43.162;20.538;2023-11-19T03:15:53;9.23;;;4.93;;
55150;SDS011;41041;43.162;20.538;2023-11-19T03:18:21;17.38;;;8.18;;
55150;SDS011;41041;43.162;20.538;2023-11-19T03:20:47;14.93;;;6.95;;
55150;SDS011;41041;43.162;20.538;2023-11-19T03:23:13;15.43;;;7.60;;
55150;SDS011;41041;43.162;20.538;2023-11-19T03:25:39;11.82;;;6.78;;
55150;SDS011;41041;43.162;20.538;2023-11-19T03:28:04;15.10;;;7.55;;
55150;SDS011;41041;43.162;20.538;2023-11-19T03:30:31;18.92;;;9.60;;
55150;SDS011;41041;43.162;20.538;2023-11-19T03:32:57;25.98;;;13.20;;
55150;SDS011;41041;43.162;20.538;2023-11-19T03:35:24;16.20;;;9.48;;
55150;SDS011;41041;43.162;20.538;2023-11-19T03:37:50;14.43;;;8.30;;
55150;SDS011;41041;43.162;20.538;2023-11-19T03:40:17;12.95;;;7.35;;
55150;SDS011;41041;43.162;20.538;2023-11-19T03:42:44;14.40;;;7.05;;
55150;SDS011;41041;43.162;20.538;2023-11-19T03:45:10;11.05;;;6.40;;
55150;SDS011;41041;43.162;20.538;2023-11-19T03:47:37;11.35;;;6.90;;
55150;SDS011;41041;43.162;20.538;2023-11-19T03:50:03;11.82;;;7.50;;
55150;SDS011;41041;43.162;20.538;2023-11-19T03:52:29;13.18;;;6.97;;
55150;SDS011;41041;43.162;20.538;2023-11-19T03:54:55;14.15;;;7.15;;
55150;SDS011;41041;43.162;20.538;2023-11-19T03:57:24;13.40;;;7.28;;
55150;SDS011;41041;43.162;20.538;2023-11-19T03:59:50;10.82;;;6.32;;
55150;SDS011;41041;43.162;20.538;2023-11-19T04:02:16;13.35;;;6.63;;
55150;SDS011;41041;43.162;20.538;2023-11-19T04:04:42;14.50;;;8.65;;
55150;SDS011;41041;43.162;20.538;2023-11-19T04:07:15;13.32;;;6.35;;
55150;SDS011;41041;43.162;20.538;2023-11-19T04:09:41;14.45;;;7.30;;
55150;SDS011;41041;43.162;20.538;2023-11-19T04:12:07;13.68;;;7.22;;
55150;SDS011;41041;43.162;20.538;2023-11-19T04:14:33;12.80;;;6.68;;
55150;SDS011;41041;43.162;20.538;2023-11-19T04:16:59;12.35;;;6.30;;
55150;SDS011;41041;43.162;20.538;2023-11-19T04:19:25;15.60;;;8.60;;
55150;SDS011;41041;43.162;20.538;2023-11-19T04:21:52;13.82;;;7.63;;
55150;SDS011;41041;43.162;20.538;2023-11-19T04:24:18;16.40;;;8.68;;
55150;SDS011;41041;43.162;20.538;2023-11-19T04:26:44;15.30;;;8.50;;
55150;SDS011;41041;43.162;20.538;2023-11-19T04:29:12;15.25;;;7.95;;
55150;SDS011;41041;43.162;20.538;2023-11-19T04:31:39;11.15;;;6.50;;
55150;SDS011;41041;43.162;20.538;2023-11-19T04:34:05;14.73;;;7.03;;
55150;SDS011;41041;43.162;20.538;2023-11-19T04:36:32;13.23;;;6.97;;
55150;SDS011;41041;43.162;20.538;2023-11-19T04:38:58;14.02;;;6.90;;
55150;SDS011;41041;43.162;20.538;2023-11-19T04:41:27;14.45;;;6.25;;
55150;SDS011;41041;43.162;20.538;2023-11-19T04:43:53;13.05;;;6.90;;
55150;SDS011;41041;43.162;20.538;2023-11-19T04:46:20;10.50;;;6.13;;
55150;SDS011;41041;43.162;20.538;2023-11-19T04:48:46;13.48;;;6.45;;
55150;SDS011;41041;43.162;20.538;2023-11-19T04:51:12;13.27;;;6.72;;
55150;SDS011;41041;43.162;20.538;2023-11-19T04:53:37;17.08;;;8.90;;
55150;SDS011;41041;43.162;20.538;2023-11-19T04:56:10;13.65;;;8.13;;
55150;SDS011;41041;43.162;20.538;2023-11-19T04:58:36;14.25;;;7.43;;
55150;SDS011;41041;43.162;20.538;2023-11-19T05:01:02;30.48;;;12.93;;
55150;SDS011;41041;43.162;20.538;2023-11-19T05:03:29;45.00;;;17.52;;
55150;SDS011;41041;43.162;20.538;2023-11-19T05:05:55;43.47;;;18.00;;
55150;SDS011;41041;43.162;20.538;2023-11-19T05:08:21;43.17;;;17.95;;
55150;SDS011;41041;43.162;20.538;2023-11-19T05:10:47;43.78;;;22.48;;
55150;SDS011;41041;43.162;20.538;2023-11-19T05:13:13;63.58;;;34.90;;
55150;SDS011;41041;43.162;20.538;2023-11-19T05:15:40;19.52;;;10.98;;
55150;SDS011;41041;43.162;20.538;2023-11-19T05:18:06;18.63;;;9.02;;
55150;SDS011;41041;43.162;20.538;2023-11-19T05:20:32;16.85;;;9.10;;
55150;SDS011;41041;43.162;20.538;2023-11-19T05:22:58;13.23;;;6.45;;
55150;SDS011;41041;43.162;20.538;2023-11-19T05:25:25;11.45;;;6.47;;
55150;SDS011;41041;43.162;20.538;2023-11-19T05:27:52;21.23;;;11.85;;
55150;SDS011;41041;43.162;20.538;2023-11-19T05:30:18;13.02;;;6.57;;
55150;SDS011;41041;43.162;20.538;2023-11-19T05:32:44;19.75;;;10.15;;
55150;SDS011;41041;43.162;20.538;2023-11-19T05:35:11;58.65;;;24.38;;
55150;SDS011;41041;43.162;20.538;2023-11-19T05:37:37;85.57;;;39.55;;
55150;SDS011;41041;43.162;20.538;2023-11-19T05:40:03;70.15;;;32.13;;
55150;SDS011;41041;43.162;20.538;2023-11-19T05:42:37;51.30;;;22.92;;
55150;SDS011;41041;43.162;20.538;2023-11-19T05:45:03;33.45;;;15.63;;
55150;SDS011;41041;43.162;20.538;2023-11-19T05:47:32;42.70;;;20.95;;
55150;SDS011;41041;43.162;20.538;2023-11-19T05:49:58;27.73;;;12.93;;
55150;SDS011;41041;43.162;20.538;2023-11-19T05:52:24;22.92;;;12.65;;
55150;SDS011;41041;43.162;20.538;2023-11-19T05:54:52;18.85;;;10.13;;
55150;SDS011;41041;43.162;20.538;2023-11-19T05:57:18;16.08;;;8.45;;
55150;SDS011;41041;43.162;20.538;2023-11-19T05:59:49;36.92;;;23.33;;
55150;SDS011;41041;43.162;20.538;2023-11-19T06:02:15;36.30;;;20.00;;
55150;SDS011;41041;43.162;20.538;2023-11-19T06:04:41;28.95;;;17.30;;
55150;SDS011;41041;43.162;20.538;2023-11-19T06:07:09;29.17;;;17.15;;
55150;SDS011;41041;43.162;20.538;2023-11-19T06:09:36;26.65;;;14.50;;
55150;SDS011;41041;43.162;20.538;2023-11-19T06:12:02;22.17;;;11.45;;
55150;SDS011;41041;43.162;20.538;2023-11-19T06:14:31;24.70;;;10.55;;
55150;SDS011;41041;43.162;20.538;2023-11-19T06:16:57;20.13;;;10.45;;
55150;SDS011;41041;43.162;20.538;2023-11-19T06:19:23;21.38;;;12.05;;
55150;SDS011;41041;43.162;20.538;2023-11-19T06:21:50;28.75;;;16.27;;
55150;SDS011;41041;43.162;20.538;2023-11-19T06:24:16;27.45;;;15.90;;
55150;SDS011;41041;43.162;20.538;2023-11-19T06:26:42;20.85;;;13.60;;
55150;SDS011;41041;43.162;20.538;2023-11-19T06:29:08;37.20;;;17.45;;
55150;SDS011;41041;43.162;20.538;2023-11-19T06:31:34;26.00;;;13.68;;
55150;SDS011;41041;43.162;20.538;2023-11-19T06:34:00;22.40;;;12.23;;
55150;SDS011;41041;43.162;20.538;2023-11-19T06:36:26;22.33;;;12.05;;
55150;SDS011;41041;43.162;20.538;2023-11-19T06:38:53;23.52;;;12.50;;
55150;SDS011;41041;43.162;20.538;2023-11-19T06:41:20;20.42;;;11.95;;
55150;SDS011;41041;43.162;20.538;2023-11-19T06:43:46;20.02;;;10.55;;
55150;SDS011;41041;43.162;20.538;2023-11-19T06:46:18;20.98;;;11.00;;
55150;SDS011;41041;43.162;20.538;2023-11-19T06:48:44;18.17;;;10.07;;
55150;SDS011;41041;43.162;20.538;2023-11-19T06:51:11;16.55;;;9.38;;
55150;SDS011;41041;43.162;20.538;2023-11-19T06:53:41;17.50;;;9.70;;
55150;SDS011;41041;43.162;20.538;2023-11-19T06:56:22;13.38;;;7.47;;
55150;SDS011;41041;43.162;20.538;2023-11-19T06:58:48;15.68;;;7.78;;
55150;SDS011;41041;43.162;20.538;2023-11-19T07:01:14;15.43;;;9.20;;
55150;SDS011;41041;43.162;20.538;2023-11-19T07:03:41;17.23;;;9.20;;
55150;SDS011;41041;43.162;20.538;2023-11-19T07:06:06;14.15;;;8.30;;
55150;SDS011;41041;43.162;20.538;2023-11-19T07:08:33;15.27;;;8.57;;
55150;SDS011;41041;43.162;20.538;2023-11-19T07:10:59;19.83;;;9.70;;
55150;SDS011;41041;43.162;20.538;2023-11-19T07:13:25;28.10;;;13.70;;
55150;SDS011;41041;43.162;20.538;2023-11-19T07:15:53;21.92;;;11.80;;
55150;SDS011;41041;43.162;20.538;2023-11-19T07:18:19;16.73;;;8.90;;
55150;SDS011;41041;43.162;20.538;2023-11-19T07:20:47;17.67;;;9.90;;
55150;SDS011;41041;43.162;20.538;2023-11-19T07:23:13;24.98;;;12.95;;
55150;SDS011;41041;43.162;20.538;2023-11-19T07:25:45;52.90;;;25.70;;
55150;SDS011;41041;43.162;20.538;2023-11-19T07:28:12;30.90;;;16.98;;
55150;SDS011;41041;43.162;20.538;2023-11-19T07:33:08;16.17;;;9.20;;
55150;SDS011;41041;43.162;20.538;2023-11-19T07:35:34;57.15;;;29.85;;
55150;SDS011;41041;43.162;20.538;2023-11-19T07:38:00;36.95;;;17.63;;
55150;SDS011;41041;43.162;20.538;2023-11-19T07:40:26;30.65;;;15.00;;
55150;SDS011;41041;43.162;20.538;2023-11-19T07:42:51;31.35;;;15.70;;
55150;SDS011;41041;43.162;20.538;2023-11-19T07:45:18;39.05;;;17.77;;
55150;SDS011;41041;43.162;20.538;2023-11-19T07:47:44;34.25;;;16.90;;
55150;SDS011;41041;43.162;20.538;2023-11-19T07:50:10;124.15;;;48.72;;
55150;SDS011;41041;43.162;20.538;2023-11-19T07:52:36;23.85;;;13.57;;
55150;SDS011;41041;43.162;20.538;2023-11-19T07:55:02;46.75;;;22.48;;
55150;SDS011;41041;43.162;20.538;2023-11-19T07:57:30;28.85;;;11.77;;
55150;SDS011;41041;43.162;20.538;2023-11-19T07:59:56;39.33;;;19.33;;
55150;SDS011;41041;43.162;20.538;2023-11-19T08:02:22;24.50;;;12.88;;
55150;SDS011;41041;43.162;20.538;2023-11-19T08:04:49;24.02;;;13.77;;
55150;SDS011;41041;43.162;20.538;2023-11-19T08:07:17;24.55;;;12.15;;
55150;SDS011;41041;43.162;20.538;2023-11-19T08:09:47;37.28;;;16.65;;
55150;SDS011;41041;43.162;20.538;2023-11-19T08:12:13;19.73;;;9.95;;
55150;SDS011;41041;43.162;20.538;2023-11-19T08:14:42;14.20;;;8.27;;
55150;SDS011;41041;43.162;20.538;2023-11-19T08:17:09;17.27;;;9.65;;
55150;SDS011;41041;43.162;20.538;2023-11-19T08:19:35;16.50;;;7.18;;
55150;SDS011;41041;43.162;20.538;2023-11-19T08:22:01;14.48;;;7.22;;
55150;SDS011;41041;43.162;20.538;2023-11-19T08:24:31;13.48;;;6.88;;
55150;SDS011;41041;43.162;20.538;2023-11-19T08:26:57;13.05;;;6.40;;
55150;SDS011;41041;43.162;20.538;2023-11-19T08:29:23;13.82;;;7.68;;
55150;SDS011;41041;43.162;20.538;2023-11-19T08:31:49;9.95;;;5.03;;
55150;SDS011;41041;43.162;20.538;2023-11-19T08:34:15;19.65;;;7.75;;
55150;SDS011;41041;43.162;20.538;2023-11-19T08:36:41;24.00;;;11.20;;
55150;SDS011;41041;43.162;20.538;2023-11-19T08:39:06;17.20;;;8.38;;
55150;SDS011;41041;43.162;20.538;2023-11-19T08:41:33;15.65;;;7.40;;
55150;SDS011;41041;43.162;20.538;2023-11-19T08:43:59;15.75;;;6.90;;
55150;SDS011;41041;43.162;20.538;2023-11-19T08:46:25;16.55;;;7.82;;
55150;SDS011;41041;43.162;20.538;2023-11-19T08:48:51;8.15;;;3.85;;
55150;SDS011;41041;43.162;20.538;2023-11-19T08:51:17;10.27;;;5.38;;
55150;SDS011;41041;43.162;20.538;2023-11-19T08:53:42;2.25;;;1.40;;
55150;SDS011;41041;43.162;20.538;2023-11-19T08:56:08;4.60;;;2.60;;
55150;SDS011;41041;43.162;20.538;2023-11-19T08:58:34;6.03;;;3.30;;
55150;SDS011;41041;43.162;20.538;2023-11-19T09:01:00;5.30;;;3.03;;
55150;SDS011;41041;43.162;20.538;2023-11-19T09:03:25;10.60;;;5.40;;
55150;SDS011;41041;43.162;20.538;2023-11-19T09:05:51;20.02;;;10.65;;
55150;SDS011;41041;43.162;20.538;2023-11-19T09:11:34;3.50;;;2.30;;
55150;SDS011;41041;43.162;20.538;2023-11-19T09:14:01;9.82;;;5.32;;
55150;SDS011;41041;43.162;20.538;2023-11-19T09:16:27;7.40;;;4.50;;
55150;SDS011;41041;43.162;20.538;2023-11-19T09:18:53;3.70;;;2.08;;
55150;SDS011;41041;43.162;20.538;2023-11-19T09:21:19;5.78;;;3.13;;
55150;SDS011;41041;43.162;20.538;2023-11-19T09:23:45;7.38;;;2.53;;
55150;SDS011;41041;43.162;20.538;2023-11-19T09:26:13;5.28;;;2.70;;
55150;SDS011;41041;43.162;20.538;2023-11-19T09:28:39;3.33;;;2.05;;
55150;SDS011;41041;43.162;20.538;2023-11-19T09:31:14;4.65;;;2.60;;
55150;SDS011;41041;43.162;20.538;2023-11-19T09:33:44;5.00;;;2.80;;
55150;SDS011;41041;43.162;20.538;2023-11-19T09:36:12;4.25;;;2.63;;
55150;SDS011;41041;43.162;20.538;2023-11-19T09:38:39;3.42;;;2.00;;
55150;SDS011;41041;43.162;20.538;2023-11-19T09:41:13;9.93;;;4.97;;
55150;SDS011;41041;43.162;20.538;2023-11-19T09:43:39;10.38;;;3.80;;
55150;SDS011;41041;43.162;20.538;2023-11-19T09:46:06;7.28;;;3.75;;
55150;SDS011;41041;43.162;20.538;2023-11-19T09:48:37;11.90;;;6.72;;
55150;SDS011;41041;43.162;20.538;2023-11-19T09:51:04;12.38;;;6.78;;
55150;SDS011;41041;43.162;20.538;2023-11-19T09:53:30;6.70;;;3.20;;
55150;SDS011;41041;43.162;20.538;2023-11-19T09:55:57;5.53;;;3.00;;
55150;SDS011;41041;43.162;20.538;2023-11-19T09:58:25;5.85;;;2.30;;
55150;SDS011;41041;43.162;20.538;2023-11-19T10:00:51;9.13;;;3.80;;
55150;SDS011;41041;43.162;20.538;2023-11-19T10:03:17;6.38;;;3.67;;
55150;SDS011;41041;43.162;20.538;2023-11-19T10:05:43;3.88;;;2.42;;
55150;SDS011;41041;43.162;20.538;2023-11-19T10:08:09;6.70;;;2.30;;
55150;SDS011;41041;43.162;20.538;2023-11-19T10:10:39;5.43;;;2.58;;
55150;SDS011;41041;43.162;20.538;2023-11-19T10:13:04;11.18;;;3.40;;
55150;SDS011;41041;43.162;20.538;2023-11-19T10:15:33;7.35;;;3.78;;
55150;SDS011;41041;43.162;20.538;2023-11-19T10:18:02;4.93;;;2.75;;
55150;SDS011;41041;43.162;20.538;2023-11-19T10:20:35;5.28;;;2.92;;
55150;SDS011;41041;43.162;20.538;2023-11-19T10:23:02;3.28;;;1.90;;
55150;SDS011;41041;43.162;20.538;2023-11-19T10:25:28;6.28;;;3.40;;
55150;SDS011;41041;43.162;20.538;2023-11-19T10:27:54;9.95;;;4.10;;
55150;SDS011;41041;43.162;20.538;2023-11-19T10:30:25;4.97;;;2.60;;
55150;SDS011;41041;43.162;20.538;2023-11-19T10:33:02;5.80;;;3.10;;
55150;SDS011;41041;43.162;20.538;2023-11-19T10:35:53;5.00;;;2.92;;
55150;SDS011;41041;43.162;20.538;2023-11-19T10:38:19;6.72;;;3.03;;
55150;SDS011;41041;43.162;20.538;2023-11-19T10:40:54;5.50;;;3.22;;
55150;SDS011;41041;43.162;20.538;2023-11-19T10:43:20;5.75;;;2.85;;
55150;SDS011;41041;43.162;20.538;2023-11-19T10:45:50;3.78;;;2.20;;
55150;SDS011;41041;43.162;20.538;2023-11-19T10:48:16;7.40;;;2.22;;
55150;SDS011;41041;43.162;20.538;2023-11-19T10:50:43;4.82;;;2.85;;
55150;SDS011;41041;43.162;20.538;2023-11-19T10:53:17;11.52;;;5.93;;
55150;SDS011;41041;43.162;20.538;2023-11-19T10:55:45;5.70;;;3.40;;
55150;SDS011;41041;43.162;20.538;2023-11-19T10:58:13;4.57;;;2.88;;
55150;SDS011;41041;43.162;20.538;2023-11-19T11:03:15;8.23;;;4.55;;
55150;SDS011;41041;43.162;20.538;2023-11-19T11:08:09;9.30;;;3.75;;
55150;SDS011;41041;43.162;20.538;2023-11-19T11:10:39;10.65;;;4.35;;
55150;SDS011;41041;43.162;20.538;2023-11-19T11:13:09;5.53;;;3.22;;
55150;SDS011;41041;43.162;20.538;2023-11-19T11:15:37;5.90;;;2.72;;
55150;SDS011;41041;43.162;20.538;2023-11-19T11:18:03;4.45;;;2.40;;
55150;SDS011;41041;43.162;20.538;2023-11-19T11:20:33;4.03;;;2.40;;
55150;SDS011;41041;43.162;20.538;2023-11-19T11:36:53;9.35;;;4.78;;
55150;SDS011;41041;43.162;20.538;2023-11-19T11:39:22;6.68;;;3.70;;
55150;SDS011;41041;43.162;20.538;2023-11-19T11:50:47;7.57;;;4.38;;
55150;SDS011;41041;43.162;20.538;2023-11-19T11:53:20;8.23;;;4.68;;
55150;SDS011;41041;43.162;20.538;2023-11-19T11:58:22;12.52;;;6.90;;
55150;SDS011;41041;43.162;20.538;2023-11-19T12:00:51;7.25;;;4.32;;
55150;SDS011;41041;43.162;20.538;2023-11-19T12:03:19;9.23;;;4.28;;
55150;SDS011;41041;43.162;20.538;2023-11-19T12:05:49;8.05;;;3.80;;
55150;SDS011;41041;43.162;20.538;2023-11-19T12:08:18;10.57;;;4.65;;
55150;SDS011;41041;43.162;20.538;2023-11-19T12:14:05;10.75;;;5.20;;
55150;SDS011;41041;43.162;20.538;2023-11-19T12:16:31;18.52;;;9.00;;
55150;SDS011;41041;43.162;20.538;2023-11-19T12:19:03;5.85;;;3.15;;
55150;SDS011;41041;43.162;20.538;2023-11-19T12:21:33;9.75;;;5.50;;
55150;SDS011;41041;43.162;20.538;2023-11-19T12:24:01;6.93;;;3.60;;
55150;SDS011;41041;43.162;20.538;2023-11-19T12:26:36;18.85;;;9.77;;
55150;SDS011;41041;43.162;20.538;2023-11-19T12:29:03;8.52;;;5.28;;
55150;SDS011;41041;43.162;20.538;2023-11-19T12:31:31;14.05;;;5.63;;
55150;SDS011;41041;43.162;20.538;2023-11-19T12:33:56;5.18;;;3.03;;
55150;SDS011;41041;43.162;20.538;2023-11-19T12:36:22;11.57;;;4.32;;
55150;SDS011;41041;43.162;20.538;2023-11-19T12:38:48;6.35;;;3.20;;
55150;SDS011;41041;43.162;20.538;2023-11-19T12:41:14;3.53;;;1.77;;
55150;SDS011;41041;43.162;20.538;2023-11-19T12:43:45;19.20;;;9.02;;
55150;SDS011;41041;43.162;20.538;2023-11-19T12:46:21;16.95;;;7.18;;
55150;SDS011;41041;43.162;20.538;2023-11-19T12:48:48;7.28;;;3.70;;
55150;SDS011;41041;43.162;20.538;2023-11-19T12:51:14;6.75;;;4.05;;
55150;SDS011;41041;43.162;20.538;2023-11-19T12:53:50;6.90;;;3.30;;
55150;SDS011;41041;43.162;20.538;2023-11-19T12:56:19;6.10;;;2.53;;
55150;SDS011;41041;43.162;20.538;2023-11-19T12:58:46;14.00;;;3.22;;
55150;SDS011;41041;43.162;20.538;2023-11-19T13:01:19;5.65;;;2.95;;
55150;SDS011;41041;43.162;20.538;2023-11-19T13:03:45;8.40;;;4.78;;
55150;SDS011;41041;43.162;20.538;2023-11-19T13:06:14;8.38;;;4.28;;
55150;SDS011;41041;43.162;20.538;2023-11-19T13:08:47;6.18;;;2.97;;
55150;SDS011;41041;43.162;20.538;2023-11-19T13:11:15;9.38;;;3.60;;
55150;SDS011;41041;43.162;20.538;2023-11-19T13:13:56;11.75;;;5.75;;
55150;SDS011;41041;43.162;20.538;2023-11-19T13:16:22;7.25;;;3.20;;
55150;SDS011;41041;43.162;20.538;2023-11-19T13:18:48;12.90;;;6.00;;
55150;SDS011;41041;43.162;20.538;2023-11-19T13:21:14;4.78;;;2.20;;
55150;SDS011;41041;43.162;20.538;2023-11-19T13:23:40;9.98;;;4.03;;
55150;SDS011;41041;43.162;20.538;2023-11-19T13:26:06;13.57;;;7.07;;
55150;SDS011;41041;43.162;20.538;2023-11-19T13:28:32;15.90;;;6.70;;
55150;SDS011;41041;43.162;20.538;2023-11-19T13:30:58;14.55;;;5.97;;
55150;SDS011;41041;43.162;20.538;2023-11-19T13:33:24;5.53;;;2.90;;
55150;SDS011;41041;43.162;20.538;2023-11-19T13:35:50;3.97;;;2.58;;
55150;SDS011;41041;43.162;20.538;2023-11-19T13:38:16;14.38;;;7.20;;
55150;SDS011;41041;43.162;20.538;2023-11-19T13:40:42;8.73;;;5.10;;
55150;SDS011;41041;43.162;20.538;2023-11-19T13:43:10;7.95;;;3.40;;
55150;SDS011;41041;43.162;20.538;2023-11-19T13:45:36;15.18;;;6.10;;
55150;SDS011;41041;43.162;20.538;2023-11-19T13:48:02;12.20;;;5.50;;
55150;SDS011;41041;43.162;20.538;2023-11-19T13:50:28;10.82;;;6.03;;
55150;SDS011;41041;43.162;20.538;2023-11-19T13:52:54;15.93;;;6.97;;
55150;SDS011;41041;43.162;20.538;2023-11-19T13:55:20;12.20;;;5.82;;
55150;SDS011;41041;43.162;20.538;2023-11-19T13:57:47;10.35;;;5.13;;
55150;SDS011;41041;43.162;20.538;2023-11-19T14:09:28;7.00;;;3.83;;
55150;SDS011;41041;43.162;20.538;2023-11-19T14:11:54;6.68;;;3.63;;
55150;SDS011;41041;43.162;20.538;2023-11-19T14:14:20;9.18;;;4.88;;
55150;SDS011;41041;43.162;20.538;2023-11-19T14:16:46;11.00;;;5.53;;
55150;SDS011;41041;43.162;20.538;2023-11-19T14:19:11;12.00;;;5.50;;
55150;SDS011;41041;43.162;20.538;2023-11-19T14:21:38;10.60;;;4.35;;
55150;SDS011;41041;43.162;20.538;2023-11-19T14:24:05;23.02;;;12.23;;
55150;SDS011;41041;43.162;20.538;2023-11-19T14:26:31;11.45;;;5.68;;
55150;SDS011;41041;43.162;20.538;2023-11-19T14:28:57;19.45;;;9.57;;
55150;SDS011;41041;43.162;20.538;2023-11-19T14:31:27;15.70;;;7.18;;
55150;SDS011;41041;43.162;20.538;2023-11-19T14:33:54;12.98;;;5.72;;
55150;SDS011;41041;43.162;20.538;2023-11-19T14:36:20;10.73;;;5.97;;
55150;SDS011;41041;43.162;20.538;2023-11-19T14:38:46;10.60;;;5.78;;
55150;SDS011;41041;43.162;20.538;2023-11-19T14:41:13;12.65;;;6.78;;
55150;SDS011;41041;43.162;20.538;2023-11-19T14:43:39;12.63;;;6.20;;
55150;SDS011;41041;43.162;20.538;2023-11-19T14:46:05;6.88;;;3.97;;
55150;SDS011;41041;43.162;20.538;2023-11-19T14:48:31;8.85;;;4.78;;
55150;SDS011;41041;43.162;20.538;2023-11-19T14:50:57;7.18;;;3.33;;
55150;SDS011;41041;43.162;20.538;2023-11-19T14:53:25;17.30;;;7.85;;
55150;SDS011;41041;43.162;20.538;2023-11-19T14:55:51;10.45;;;4.50;;
55150;SDS011;41041;43.162;20.538;2023-11-19T14:58:17;5.30;;;3.33;;
55150;SDS011;41041;43.162;20.538;2023-11-19T15:00:43;9.90;;;4.75;;
55150;SDS011;41041;43.162;20.538;2023-11-19T15:03:10;12.55;;;5.80;;
55150;SDS011;41041;43.162;20.538;2023-11-19T15:05:37;15.07;;;8.35;;
55150;SDS011;41041;43.162;20.538;2023-11-19T15:08:03;27.00;;;11.57;;
55150;SDS011;41041;43.162;20.538;2023-11-19T15:10:29;18.60;;;8.15;;
55150;SDS011;41041;43.162;20.538;2023-11-19T15:12:55;28.38;;;8.38;;
55150;SDS011;41041;43.162;20.538;2023-11-19T15:15:21;23.52;;;7.55;;
55150;SDS011;41041;43.162;20.538;2023-11-19T15:17:47;18.58;;;7.60;;
55150;SDS011;41041;43.162;20.538;2023-11-19T15:22:44;17.75;;;10.48;;
55150;SDS011;41041;43.162;20.538;2023-11-19T15:25:10;17.98;;;8.98;;